Time;durP1;ratioP1;P1;durP2;ratioP2;P2;SDS_P1;SDS_P2;PMS_P1;PMS_P2;Temp;Humidity;BMP_temperature;BMP_pressure;BME280_temperature;BME280_humidity;BME280_pressure;Samples;Min_cycle;Max_cycle;Signal;HPM_P1;HPM_P2
2021/10/21 00:04:11;;;;;;;24.75;11.40;;;;;;;13.45;100.00;98874.97;10629115;27;20047;-61
2021/10/21 00:09:14;;;;;;;20.73;10.93;;;;;;;13.38;100.00;98852.88;10628976;27;20043;-61
2021/10/21 00:14:16;;;;;;;18.17;10.45;;;;;;;13.39;100.00;98828.25;10628511;27;20047;-62
2021/10/21 00:19:18;;;;;;;24.60;10.63;;;;;;;13.62;100.00;98809.34;10628453;27;20043;-61
2021/10/21 00:24:21;;;;;;;17.27;9.32;;;;;;;13.51;100.00;98760.47;10627063;27;20474;-60
2021/10/21 00:29:23;;;;;;;16.10;10.10;;;;;;;13.47;100.00;98704.78;10628324;27;20052;-60
2021/10/21 00:34:25;;;;;;;17.38;9.25;;;;;;;13.47;100.00;98694.25;10627880;27;20050;-60
2021/10/21 00:39:28;;;;;;;22.48;11.15;;;;;;;13.40;100.00;98685.34;10628022;27;20056;-60
2021/10/21 00:44:30;;;;;;;24.45;10.50;;;;;;;13.42;100.00;98675.50;10627664;27;20054;-60
2021/10/21 00:49:32;;;;;;;17.17;9.57;;;;;;;13.50;100.00;98666.81;10627275;27;20051;-60
2021/10/21 00:54:36;;;;;;;11.38;6.10;;;;;;;13.47;100.00;98670.59;10626970;27;20047;-60
2021/10/21 00:59:39;;;;;;;7.28;4.35;;;;;;;13.34;100.00;98672.84;10608611;27;20047;-61
2021/10/21 01:04:41;;;;;;;9.40;4.43;;;;;;;13.15;100.00;98673.88;10626790;27;20047;-61
2021/10/21 01:09:45;;;;;;;8.15;2.45;;;;;;;13.20;100.00;98669.78;10626288;27;20054;-61
2021/10/21 01:14:47;;;;;;;8.20;3.88;;;;;;;12.76;100.00;98662.00;10626296;27;20471;-61
2021/10/21 01:19:50;;;;;;;9.95;3.47;;;;;;;12.87;100.00;98662.72;10625947;27;20051;-60
2021/10/21 01:24:56;;;;;;;3.00;2.20;;;;;;;12.86;100.00;98656.66;10625603;27;20039;-60
2021/10/21 01:29:58;;;;;;;3.97;1.88;;;;;;;12.98;100.00;98655.41;10607728;27;20066;-61
2021/10/21 01:35:04;;;;;;;3.97;2.03;;;;;;;12.77;100.00;98644.44;10625501;27;20053;-61
2021/10/21 01:40:10;;;;;;;3.58;1.80;;;;;;;12.88;100.00;98638.91;10625477;27;20051;-62
2021/10/21 01:45:32;;;;;;;2.25;1.45;;;;;;;12.66;100.00;98639.44;10624848;27;20499;-61
2021/10/21 01:50:34;;;;;;;1.80;1.00;;;;;;;12.49;100.00;98636.72;10624858;27;20424;-60
2021/10/21 01:55:37;;;;;;;2.67;1.25;;;;;;;12.28;100.00;98650.16;10624904;27;20682;-61
2021/10/21 02:00:40;;;;;;;4.00;1.20;;;;;;;12.32;100.00;98627.06;10624849;27;20046;-61
2021/10/21 02:05:42;;;;;;;3.83;0.98;;;;;;;12.00;100.00;98623.19;10624693;27;20095;-62
2021/10/21 02:10:45;;;;;;;5.22;1.98;;;;;;;12.02;100.00;98616.81;10624299;27;20050;-61
2021/10/21 02:15:47;;;;;;;6.28;1.35;;;;;;;11.90;100.00;98618.81;10624636;28;20047;-61
2021/10/21 02:20:49;;;;;;;6.97;1.70;;;;;;;11.94;100.00;98622.00;10624218;28;20045;-60
2021/10/21 02:25:52;;;;;;;3.53;1.38;;;;;;;11.98;100.00;98604.16;10624778;28;20072;-59
2021/10/21 02:30:55;;;;;;;5.47;1.17;;;;;;;12.01;100.00;98606.47;10623958;28;20051;-61
2021/10/21 02:35:57;;;;;;;5.57;1.13;;;;;;;12.03;100.00;98612.38;10623848;28;20061;-60
2021/10/21 02:40:59;;;;;;;3.72;1.08;;;;;;;11.99;98.14;98598.75;10623589;28;20044;-61
2021/10/21 02:46:02;;;;;;;7.97;1.30;;;;;;;11.96;100.00;98606.09;10625812;27;20394;-60
2021/10/21 02:51:05;;;;;;;2.10;0.80;;;;;;;11.98;100.00;98589.22;10632080;27;20172;-62
2021/10/21 02:56:07;;;;;;;3.20;1.00;;;;;;;11.97;100.00;98597.25;10631938;27;20058;-60
2021/10/21 03:01:10;;;;;;;6.00;0.93;;;;;;;12.04;100.00;98614.88;10631698;27;20043;-61
2021/10/21 03:06:12;;;;;;;4.85;1.30;;;;;;;11.79;100.00;98600.69;10631312;27;20554;-60
2021/10/21 03:11:14;;;;;;;4.40;0.82;;;;;;;11.71;100.00;98590.09;10630956;27;20502;-61
2021/10/21 03:16:17;;;;;;;5.38;1.20;;;;;;;11.64;100.00;98605.59;10631595;27;20047;-60
2021/10/21 03:21:19;;;;;;;4.82;1.10;;;;;;;11.76;100.00;98600.16;10630679;27;20407;-61
2021/10/21 03:26:22;;;;;;;3.47;1.55;;;;;;;11.47;100.00;98580.22;10631010;27;20047;-62
2021/10/21 03:31:29;;;;;;;5.93;1.00;;;;;;;11.74;100.00;98589.00;10630261;27;20057;-60
2021/10/21 03:36:31;;;;;;;6.93;1.33;;;;;;;11.57;100.00;98583.59;10630519;27;20081;-60
2021/10/21 03:41:33;;;;;;;6.70;1.20;;;;;;;11.68;100.00;98578.16;10630073;27;20451;-60
2021/10/21 03:46:37;;;;;;;5.60;1.55;;;;;;;11.55;100.00;98577.69;10629683;27;20482;-60
2021/10/21 03:51:39;;;;;;;7.80;1.65;;;;;;;11.62;100.00;98576.09;10629695;27;20043;-60
2021/10/21 03:56:43;;;;;;;3.47;1.00;;;;;;;11.45;100.00;98582.97;10628351;27;20478;-59
2021/10/21 04:01:45;;;;;;;5.35;1.02;;;;;;;11.43;100.00;98582.31;10629607;27;20039;-59
2021/10/21 04:06:48;;;;;;;5.93;1.40;;;;;;;11.24;100.00;98587.66;10629011;27;20482;-61
2021/10/21 04:11:50;;;;;;;7.95;2.53;;;;;;;11.30;100.00;98580.03;10628551;27;20061;-60
2021/10/21 04:16:53;;;;;;;5.10;1.15;;;;;;;11.19;100.00;98568.94;10628864;27;20058;-60
2021/10/21 04:21:55;;;;;;;4.57;1.52;;;;;;;11.53;100.00;98571.75;10628535;27;20047;-60
2021/10/21 04:26:57;;;;;;;5.28;1.40;;;;;;;11.50;100.00;98561.59;10627600;27;20410;-60
2021/10/21 04:32:00;;;;;;;2.95;1.50;;;;;;;11.37;100.00;98563.75;10628101;27;20043;-61
2021/10/21 04:37:02;;;;;;;5.25;1.80;;;;;;;11.15;100.00;98548.28;10627202;27;20048;-59
2021/10/21 04:42:05;;;;;;;5.13;1.23;;;;;;;11.21;100.00;98548.66;10627161;27;20096;-61
2021/10/21 04:47:07;;;;;;;5.55;1.60;;;;;;;11.21;100.00;98562.56;10628127;27;20047;-59
2021/10/21 04:52:09;;;;;;;6.55;1.65;;;;;;;11.11;100.00;98559.19;10627298;27;20047;-60
2021/10/21 04:57:11;;;;;;;4.00;1.38;;;;;;;11.12;100.00;98569.50;10627090;27;20042;-60
2021/10/21 05:02:14;;;;;;;5.97;1.83;;;;;;;10.98;100.00;98559.53;10626827;27;20061;-60
2021/10/21 05:07:16;;;;;;;2.25;1.73;;;;;;;11.22;100.00;98585.19;10626467;27;20479;-60
2021/10/21 05:12:19;;;;;;;11.40;2.67;;;;;;;11.09;100.00;98577.66;10626065;27;20125;-61
2021/10/21 05:17:21;;;;;;;3.95;1.48;;;;;;;11.34;100.00;98583.19;10626447;27;20130;-62
2021/10/21 05:22:24;;;;;;;1.77;1.13;;;;;;;11.11;100.00;98601.94;10607846;27;20085;-61
2021/10/21 05:27:26;;;;;;;4.05;1.23;;;;;;;11.22;100.00;98605.31;10607512;27;20495;-60
2021/10/21 05:32:28;;;;;;;2.17;1.20;;;;;;;11.27;100.00;98624.03;10625436;27;20039;-60
2021/10/21 05:37:30;;;;;;;4.00;1.50;;;;;;;10.92;100.00;98655.19;10625065;27;20055;-60
2021/10/21 05:42:33;;;;;;;3.45;1.33;;;;;;;11.02;100.00;98683.94;10607079;27;20050;-61
2021/10/21 05:47:35;;;;;;;4.03;2.03;;;;;;;10.80;100.00;98716.53;10624965;27;20402;-59
2021/10/21 05:52:38;;;;;;;7.47;2.45;;;;;;;10.76;100.00;98763.09;10625203;27;20167;-60
2021/10/21 05:57:40;;;;;;;6.85;2.35;;;;;;;10.57;100.00;98837.22;10624670;27;20046;-60
2021/10/21 06:02:42;;;;;;;2.83;1.15;;;;;;;10.22;100.00;98919.56;10624788;27;20050;-59
2021/10/21 06:07:45;;;;;;;4.28;0.80;;;;;;;9.92;100.00;98993.56;10624511;27;20054;-60
2021/10/21 06:12:50;;;;;;;2.47;0.80;;;;;;;9.93;100.00;99054.53;10624564;27;20058;-61
2021/10/21 06:17:55;;;;;;;2.10;0.70;;;;;;;9.71;100.00;99111.16;10624585;28;20047;-60
2021/10/21 06:22:57;;;;;;;2.72;0.77;;;;;;;9.83;100.00;99169.44;10611816;27;20043;-60
2021/10/21 06:28:00;;;;;;;3.90;1.00;;;;;;;9.86;100.00;99205.81;10632915;27;20506;-60
2021/10/21 06:33:03;;;;;;;5.10;0.80;;;;;;;9.67;100.00;99258.72;10632821;27;20047;-61
2021/10/21 06:38:05;;;;;;;3.72;0.90;;;;;;;9.85;100.00;99272.94;10632672;27;20069;-61
2021/10/21 06:43:08;;;;;;;2.67;0.80;;;;;;;9.82;100.00;99320.25;10632438;27;20054;-59
2021/10/21 06:48:10;;;;;;;4.57;1.02;;;;;;;9.78;100.00;99362.41;10631784;27;20043;-60
2021/10/21 06:53:12;;;;;;;7.13;1.88;;;;;;;9.75;100.00;99371.34;10631698;27;20039;-60
2021/10/21 06:58:15;;;;;;;9.38;1.70;;;;;;;9.79;100.00;99413.75;10631609;27;20078;-61
2021/10/21 07:03:17;;;;;;;14.65;1.65;;;;;;;9.86;100.00;99448.91;10631678;27;20039;-60
2021/10/21 07:08:20;;;;;;;8.85;1.52;;;;;;;9.89;100.00;99456.53;10631183;27;20414;-59
2021/10/21 07:13:24;;;;;;;10.13;2.00;;;;;;;10.03;100.00;99471.16;10631056;27;20039;-60
2021/10/21 07:18:39;;;;;;;6.60;1.88;;;;;;;10.00;100.00;99497.53;10631039;27;20418;-61
2021/10/21 07:23:41;;;;;;;12.88;1.92;;;;;;;10.10;100.00;99537.72;10630736;27;20494;-59
2021/10/21 07:28:44;;;;;;;6.68;2.03;;;;;;;10.10;100.00;99565.69;10630460;27;20051;-59
2021/10/21 07:33:46;;;;;;;12.50;2.13;;;;;;;10.02;100.00;99600.25;10629977;27;20398;-62
2021/10/21 07:38:49;;;;;;;12.30;2.60;;;;;;;10.12;100.00;99626.53;10630180;27;20055;-59
2021/10/21 07:43:52;;;;;;;15.75;3.58;;;;;;;9.91;100.00;99653.31;10629710;27;20514;-59
2021/10/21 07:48:54;;;;;;;6.90;1.73;;;;;;;9.93;100.00;99677.56;10630172;27;20047;-60
2021/10/21 07:53:57;;;;;;;15.82;2.75;;;;;;;9.76;100.00;99698.88;10629546;27;20550;-60
2021/10/21 07:59:02;;;;;;;11.20;2.42;;;;;;;9.95;100.00;99712.31;10629736;27;20047;-59
2021/10/21 08:04:30;;;;;;;14.13;2.97;;;;;;;10.16;100.00;99757.00;10629333;27;20487;-60
2021/10/21 08:09:32;;;;;;;10.63;3.00;;;;;;;10.69;100.00;99746.19;10628873;27;20403;-60
2021/10/21 08:14:35;;;;;;;13.93;2.55;;;;;;;11.27;100.00;99766.31;10629068;27;20050;-60
2021/10/21 08:19:37;;;;;;;25.38;4.82;;;;;;;11.69;100.00;99777.03;10628541;27;20050;-59
2021/10/21 08:24:39;;;;;;;14.15;2.45;;;;;;;11.40;100.00;99779.28;10628580;27;20043;-62
2021/10/21 08:29:42;;;;;;;8.32;1.63;;;;;;;12.00;100.00;99804.34;10627980;27;20055;-60
2021/10/21 08:34:44;;;;;;;13.10;2.65;;;;;;;11.65;99.32;99810.53;10627917;27;20047;-61
2021/10/21 08:39:47;;;;;;;13.70;2.83;;;;;;;10.97;100.00;99831.34;10627685;27;20048;-60
2021/10/21 08:44:49;;;;;;;11.88;2.67;;;;;;;11.14;100.00;99832.72;10627005;27;20063;-60
2021/10/21 08:49:52;;;;;;;11.27;2.92;;;;;;;11.15;100.00;99857.97;10627996;27;20047;-60
2021/10/21 08:54:56;;;;;;;11.75;3.00;;;;;;;10.94;100.00;99881.38;10609316;27;20047;-60
2021/10/21 08:59:58;;;;;;;16.42;3.05;;;;;;;10.75;100.00;99901.97;10626795;27;20043;-62
2021/10/21 09:05:14;;;;;;;21.50;2.92;;;;;;;10.57;100.00;99909.38;10626720;27;20130;-60
2021/10/21 09:10:16;;;;;;;12.02;2.17;;;;;;;10.32;100.00;99921.59;10626995;27;20094;-60
2021/10/21 09:15:24;;;;;;;13.10;2.72;;;;;;;9.90;100.00;99954.97;10626520;27;20058;-60
2021/10/21 09:20:40;;;;;;;16.27;3.17;;;;;;;10.14;100.00;99949.81;10608648;27;20043;-59
2021/10/21 09:25:43;;;;;;;16.15;2.97;;;;;;;10.13;100.00;99961.22;10626078;27;20056;-59
2021/10/21 09:31:01;;;;;;;21.30;3.30;;;;;;;10.26;100.00;99965.63;10626201;27;20051;-61
2021/10/21 09:36:03;;;;;;;12.73;2.35;;;;;;;9.78;100.00;99980.13;10625645;27;20049;-60
2021/10/21 09:41:19;;;;;;;16.80;2.35;;;;;;;10.31;100.00;100003.59;10625194;27;20047;-59
2021/10/21 09:46:34;;;;;;;9.85;2.05;;;;;;;10.18;100.00;100000.16;10625166;27;20051;-60
2021/10/21 09:51:36;;;;;;;16.85;2.60;;;;;;;10.02;100.00;100013.44;10625167;27;20066;-59
2021/10/21 09:57:18;;;;;;;11.63;2.13;;;;;;;10.32;100.00;100009.69;10625018;27;20050;-61
2021/10/21 10:02:22;;;;;;;11.20;1.90;;;;;;;10.14;100.00;100030.91;10411490;28;20124;-59
2021/10/21 10:07:28;;;;;;;7.05;2.20;;;;;;;10.04;100.00;100037.72;10579253;27;20088;-60
2021/10/21 10:12:35;;;;;;;7.68;1.95;;;;;;;10.17;100.00;100049.03;10624100;27;20399;-60
2021/10/21 10:17:37;;;;;;;15.38;2.50;;;;;;;10.09;100.00;100043.47;10623666;28;20047;-60
2021/10/21 10:22:40;;;;;;;6.82;2.80;;;;;;;10.16;100.00;100043.88;10624423;28;20043;-59
2021/10/21 10:27:59;;;;;;;8.98;2.58;;;;;;;10.15;100.00;100058.72;10624515;28;20047;-59
2021/10/21 10:33:01;;;;;;;8.77;2.92;;;;;;;10.29;100.00;100067.41;10623964;28;20047;-60
2021/10/21 10:38:06;;;;;;;4.32;2.05;;;;;;;10.62;100.00;100074.78;10623525;28;20059;-61
2021/10/21 10:43:11;;;;;;;8.38;2.15;;;;;;;11.19;100.00;100068.19;10623700;28;20379;-60
2021/10/21 10:48:53;;;;;;;11.10;2.97;;;;;;;11.33;100.00;100067.19;10623985;28;20043;-61
2021/10/21 10:53:57;;;;;;;7.43;2.75;;;;;;;10.66;100.00;100080.63;10623575;28;20406;-61
2021/10/21 10:59:19;;;;;;;8.80;2.15;;;;;;;11.63;100.00;100089.50;10623276;28;20074;-61
2021/10/21 11:04:55;;;;;;;4.60;2.00;;;;;;;11.79;100.00;100086.59;10622285;28;20046;-60
2021/10/21 11:10:23;;;;;;;7.55;2.55;;;;;;;11.81;100.00;100101.25;10629846;27;20042;-60
2021/10/21 11:15:34;;;;;;;11.77;2.95;;;;;;;11.68;100.00;100097.88;10620426;27;20104;-60
2021/10/21 11:20:37;;;;;;;8.70;1.90;;;;;;;11.60;100.00;100113.31;10630783;27;20047;-60
2021/10/21 11:25:39;;;;;;;7.07;1.77;;;;;;;11.27;100.00;100131.34;10630739;27;20410;-60
2021/10/21 11:30:42;;;;;;;3.75;1.60;;;;;;;11.14;100.00;100130.53;10630405;27;20039;-60
2021/10/21 11:35:44;;;;;;;8.30;1.80;;;;;;;11.23;100.00;100134.28;10630361;27;20046;-60
2021/10/21 11:40:49;;;;;;;9.05;1.88;;;;;;;11.43;100.00;100138.97;10629940;27;20047;-60
2021/10/21 11:46:03;;;;;;;8.95;1.95;;;;;;;13.07;100.00;100138.16;10630306;27;20050;-60
2021/10/21 11:51:09;;;;;;;6.97;2.22;;;;;;;12.63;100.00;100129.31;10629729;27;20043;-61
2021/10/21 11:56:13;;;;;;;6.60;1.83;;;;;;;12.20;100.00;100129.94;10629499;27;20495;-60
2021/10/21 12:01:23;;;;;;;7.00;1.70;;;;;;;12.68;97.15;100129.81;10629199;27;20039;-61
2021/10/21 12:06:29;;;;;;;7.13;2.47;;;;;;;12.32;100.00;100157.03;10629166;27;20126;-61
2021/10/21 12:11:31;;;;;;;9.48;1.58;;;;;;;10.80;100.00;100255.16;10629628;27;20047;-62
2021/10/21 12:16:34;;;;;;;1.63;0.60;;;;;;;10.62;100.00;100267.66;10628893;27;20120;-60
2021/10/21 12:21:45;;;;;;;1.40;0.60;;;;;;;9.81;100.00;100303.28;10610792;27;20047;-60
2021/10/21 12:26:58;;;;;;;2.42;1.45;;;;;;;9.41;100.00;100303.94;10628267;27;20422;-60
2021/10/21 12:32:01;;;;;;;3.58;0.68;;;;;;;9.72;100.00;100323.00;10628193;27;20051;-61
2021/10/21 12:37:07;;;;;;;2.35;1.00;;;;;;;9.76;100.00;100328.88;10592831;27;20052;-60
2021/10/21 12:42:18;;;;;;;5.15;1.05;;;;;;;9.70;100.00;100342.31;10628108;27;20039;-60
2021/10/21 12:47:23;;;;;;;2.65;0.70;;;;;;;9.82;100.00;100336.34;10627377;27;20046;-59
2021/10/21 12:52:33;;;;;;;3.33;1.23;;;;;;;9.23;100.00;100354.69;10627352;27;20043;-60
2021/10/21 12:57:43;;;;;;;7.97;1.20;;;;;;;9.69;100.00;100353.72;10627586;27;20049;-60
2021/10/21 13:02:45;;;;;;;2.65;1.13;;;;;;;9.81;100.00;100371.28;10626810;27;20474;-61
2021/10/21 13:07:48;;;;;;;6.38;1.35;;;;;;;9.88;100.00;100382.19;10608865;27;20046;-60
2021/10/21 13:12:50;;;;;;;9.18;2.40;;;;;;;9.14;100.00;100384.78;10608403;27;20051;-60
2021/10/21 13:17:52;;;;;;;4.00;1.52;;;;;;;10.44;100.00;100403.19;10626198;27;20112;-60
2021/10/21 13:22:55;;;;;;;6.47;1.33;;;;;;;10.52;100.00;100422.72;10626437;27;20047;-62
2021/10/21 13:27:57;;;;;;;7.25;0.90;;;;;;;9.62;100.00;100449.97;10625978;27;20043;-61
2021/10/21 13:33:00;;;;;;;8.95;1.55;;;;;;;9.57;100.00;100468.53;10625873;27;20051;-60
2021/10/21 13:38:03;;;;;;;4.90;1.60;;;;;;;9.51;100.00;100471.50;10625681;27;20055;-62
2021/10/21 13:43:05;;;;;;;8.40;1.98;;;;;;;9.76;100.00;100473.50;10624929;27;20495;-61
2021/10/21 13:48:10;;;;;;;7.70;1.67;;;;;;;9.61;100.00;100487.47;10624823;27;20398;-60
2021/10/21 13:53:12;;;;;;;4.35;1.38;;;;;;;9.86;100.00;100515.66;10625334;27;20051;-59
2021/10/21 13:58:15;;;;;;;3.45;1.40;;;;;;;9.60;100.00;100536.31;10624922;27;20047;-59
2021/10/21 14:03:17;;;;;;;5.35;1.85;;;;;;;9.30;100.00;100565.03;10624592;27;20478;-61
2021/10/21 14:08:20;;;;;;;7.65;1.80;;;;;;;8.87;100.00;100580.41;10624889;27;20122;-61
2021/10/21 14:13:23;;;;;;;8.32;2.45;;;;;;;8.83;100.00;100566.69;10624589;27;20047;-61
2021/10/21 14:18:25;;;;;;;4.38;1.20;;;;;;;8.89;100.00;100565.50;10624268;27;20051;-60
2021/10/21 14:23:28;;;;;;;7.57;1.55;;;;;;;9.06;100.00;100581.13;10624287;28;20510;-59
2021/10/21 14:28:31;;;;;;;3.47;1.20;;;;;;;8.77;100.00;100590.50;10623983;28;20055;-61
2021/10/21 14:33:34;;;;;;;3.55;1.35;;;;;;;9.14;100.00;100603.34;10624356;28;20058;-59
2021/10/21 14:38:36;;;;;;;8.15;1.40;;;;;;;10.50;100.00;100627.91;10624228;28;20055;-60
2021/10/21 14:43:38;;;;;;;10.05;2.63;;;;;;;9.37;100.00;100615.16;10629171;27;20090;-60
2021/10/21 14:48:41;;;;;;;13.02;2.38;;;;;;;9.05;100.00;100622.97;10632299;27;20054;-59
2021/10/21 14:53:47;;;;;;;10.10;1.40;;;;;;;8.95;100.00;100632.25;10632421;27;20051;-60
2021/10/21 14:58:50;;;;;;;8.98;1.73;;;;;;;9.02;100.00;100642.25;10631850;27;20508;-61
2021/10/21 15:03:57;;;;;;;2.95;1.40;;;;;;;8.50;100.00;100647.59;10632572;27;20050;-61
2021/10/21 15:24:44;;;;;;;12.75;2.13;;;;;;;8.71;100.00;100695.25;10630564;27;20050;-61
2021/10/21 15:29:47;;;;;;;12.30;2.50;;;;;;;8.86;100.00;100702.28;10630438;27;20422;-61
2021/10/21 15:34:49;;;;;;;5.53;1.83;;;;;;;8.80;100.00;100707.00;10630810;27;20050;-61
2021/10/21 15:39:52;;;;;;;9.45;1.70;;;;;;;8.72;100.00;100728.25;10630530;27;20051;-60
2021/10/21 15:50:13;;;;;;;10.20;2.38;;;;;;;8.76;100.00;100737.63;10630268;27;20043;-60
2021/10/21 16:16:25;;;;;;;17.15;3.08;;;;;;;8.36;100.00;100810.84;10628854;27;20483;-60
2021/10/21 16:21:30;;;;;;;18.05;3.70;;;;;;;8.44;100.00;100812.28;10628751;27;20043;-61
2021/10/21 16:26:39;;;;;;;13.57;3.00;;;;;;;8.24;100.00;100818.41;10628392;27;20057;-60
2021/10/21 16:31:44;;;;;;;16.67;3.17;;;;;;;8.20;100.00;100825.53;10628288;27;20051;-60
2021/10/21 16:36:46;;;;;;;12.45;2.95;;;;;;;8.08;100.00;100850.41;10627978;27;20055;-61
2021/10/21 16:41:49;;;;;;;13.98;2.30;;;;;;;7.89;100.00;100857.41;10627660;27;20043;-59
2021/10/21 16:46:51;;;;;;;13.10;3.45;;;;;;;7.93;100.00;100859.78;10627825;27;20043;-61
2021/10/21 16:51:57;;;;;;;22.88;4.60;;;;;;;7.92;100.00;100883.34;10627253;27;20070;-59
2021/10/21 16:56:59;;;;;;;26.33;4.75;;;;;;;7.68;100.00;100893.91;10627487;27;20043;-59
2021/10/21 17:02:03;;;;;;;18.08;4.03;;;;;;;7.63;100.00;100904.56;10626994;27;20050;-60
2021/10/21 17:07:06;;;;;;;27.25;8.48;;;;;;;7.33;100.00;100924.97;10626429;27;20082;-59
2021/10/21 17:12:09;;;;;;;24.92;3.83;;;;;;;7.51;100.00;100930.28;10626530;27;20046;-60
2021/10/21 17:17:11;;;;;;;18.65;7.80;;;;;;;7.41;100.00;100941.13;10626757;27;20054;-59
2021/10/21 17:22:14;;;;;;;34.00;9.68;;;;;;;7.11;100.00;100945.81;10626320;27;20047;-59
2021/10/21 17:27:16;;;;;;;23.77;5.82;;;;;;;7.36;100.00;100950.88;10626026;27;20069;-59
2021/10/21 17:32:19;;;;;;;19.60;3.83;;;;;;;7.23;100.00;100963.53;10625704;27;20043;-60
2021/10/21 17:37:21;;;;;;;20.38;3.50;;;;;;;7.12;100.00;100965.72;10625454;27;20065;-59
2021/10/21 17:42:23;;;;;;;16.27;3.47;;;;;;;6.97;100.00;100974.16;10625080;27;20513;-61
2021/10/21 17:47:26;;;;;;;15.98;3.00;;;;;;;7.04;100.00;100981.69;10625338;27;20050;-61
2021/10/21 17:52:29;;;;;;;18.98;3.88;;;;;;;6.95;100.00;100987.22;10590066;27;20050;-60
2021/10/21 17:57:32;;;;;;;11.18;2.55;;;;;;;6.80;100.00;101003.44;10607479;27;20105;-59
2021/10/21 18:02:36;;;;;;;19.70;2.95;;;;;;;6.86;100.00;101005.81;10624642;27;20497;-60
2021/10/21 18:07:39;;;;;;;20.02;2.53;;;;;;;7.04;100.00;101017.25;10624940;27;20057;-60
2021/10/21 18:12:42;;;;;;;12.55;3.55;;;;;;;6.99;100.00;101037.41;10624522;27;20122;-58
2021/10/21 18:17:46;;;;;;;15.68;3.20;;;;;;;6.64;100.00;101048.25;10623980;27;20047;-60
2021/10/21 18:22:48;;;;;;;15.75;3.75;;;;;;;6.79;100.00;101059.88;10624074;28;20497;-59
2021/10/21 18:27:54;;;;;;;16.38;3.92;;;;;;;6.84;100.00;101059.66;10624290;28;20047;-60
2021/10/21 18:32:56;;;;;;;17.13;3.47;;;;;;;6.64;100.00;101074.28;10605646;28;20425;-59
2021/10/21 18:37:58;;;;;;;16.90;3.95;;;;;;;6.86;100.00;101086.50;10623814;28;20062;-60
2021/10/21 18:43:03;;;;;;;14.52;2.70;;;;;;;6.72;100.00;101091.34;10605956;28;20054;-60
2021/10/21 18:48:05;;;;;;;20.55;3.30;;;;;;;6.57;100.00;101108.38;10623741;28;20053;-60
2021/10/21 18:53:08;;;;;;;14.48;2.58;;;;;;;6.53;100.00;101120.63;10623720;28;20043;-60
2021/10/21 18:58:11;;;;;;;19.88;3.90;;;;;;;6.64;100.00;101122.84;10623613;28;20069;-60
2021/10/21 19:03:14;;;;;;;14.90;2.72;;;;;;;6.29;100.00;101128.41;10624156;28;20054;-59
2021/10/21 19:08:16;;;;;;;16.88;4.03;;;;;;;6.11;100.00;101144.63;10623348;28;20410;-60
2021/10/21 19:13:19;;;;;;;16.30;3.20;;;;;;;6.30;100.00;101150.03;10623540;28;20045;-60
2021/10/21 19:18:21;;;;;;;19.30;3.35;;;;;;;6.32;100.00;101158.63;10623160;28;20529;-59
2021/10/21 19:23:25;;;;;;;11.80;3.03;;;;;;;6.22;100.00;101155.53;10623663;28;20043;-60
2021/10/21 19:28:28;;;;;;;20.10;3.63;;;;;;;6.22;100.00;101165.03;10625858;27;20042;-59
2021/10/21 19:33:30;;;;;;;16.35;3.20;;;;;;;6.03;100.00;101175.22;10630623;27;20068;-60
2021/10/21 19:38:33;;;;;;;21.55;4.38;;;;;;;6.15;100.00;101177.41;10630140;27;20445;-60
2021/10/21 19:43:36;;;;;;;23.63;3.78;;;;;;;6.03;100.00;101185.59;10629947;27;20092;-60
2021/10/21 19:48:40;;;;;;;10.45;3.45;;;;;;;6.16;100.00;101184.31;10630063;27;20043;-58
2021/10/21 19:53:43;;;;;;;21.48;3.42;;;;;;;5.87;100.00;101183.47;10630150;27;20043;-60
2021/10/21 19:58:46;;;;;;;13.10;3.38;;;;;;;5.89;100.00;101199.84;10629477;27;20058;-59
2021/10/21 20:03:48;;;;;;;13.82;3.38;;;;;;;5.95;100.00;101194.47;10629333;27;20505;-60
2021/10/21 20:08:51;;;;;;;16.45;4.70;;;;;;;6.18;100.00;101216.31;10629048;27;20055;-59
2021/10/21 20:13:54;;;;;;;22.30;4.13;;;;;;;5.99;100.00;101210.84;10628988;27;20047;-58
2021/10/21 20:18:57;;;;;;;22.08;3.47;;;;;;;5.95;100.00;101217.00;10629086;27;20051;-60
2021/10/21 20:23:59;;;;;;;17.65;3.30;;;;;;;5.97;100.00;101219.56;10628653;27;20482;-59
2021/10/21 20:29:02;;;;;;;18.52;3.65;;;;;;;6.06;100.00;101225.34;10628139;27;20047;-56
2021/10/21 20:34:08;;;;;;;11.35;3.13;;;;;;;6.06;100.00;101242.69;10628383;27;20479;-62
2021/10/21 20:39:11;;;;;;;13.38;3.10;;;;;;;6.01;100.00;101255.84;10627769;27;20058;-59
2021/10/21 20:44:14;;;;;;;15.07;3.63;;;;;;;6.29;100.00;101274.03;10628147;27;20051;-60
2021/10/21 20:49:16;;;;;;;18.30;3.13;;;;;;;6.44;100.00;101272.69;10627436;27;20403;-60
2021/10/21 20:54:18;;;;;;;13.27;2.85;;;;;;;6.22;100.00;101277.72;10609353;27;20045;-59
2021/10/21 20:59:21;;;;;;;16.85;3.53;;;;;;;6.14;100.00;101288.34;10626808;27;20054;-59
2021/10/21 21:04:23;;;;;;;10.93;3.22;;;;;;;6.14;100.00;101283.16;10627241;27;20427;-57
2021/10/21 21:09:26;;;;;;;18.42;3.45;;;;;;;6.14;100.00;101285.75;10626712;27;20039;-59
2021/10/21 21:14:28;;;;;;;14.70;3.63;;;;;;;6.08;100.00;101296.34;10626848;27;20139;-58
2021/10/21 21:19:30;;;;;;;17.15;3.63;;;;;;;5.99;100.00;101296.63;10626074;27;20051;-60
2021/10/21 21:24:32;;;;;;;12.77;4.35;;;;;;;6.13;100.00;101315.25;10626169;27;20051;-61
2021/10/21 21:29:35;;;;;;;34.90;5.32;;;;;;;6.08;100.00;101318.88;10625919;27;20069;-59
2021/10/21 21:34:37;;;;;;;20.00;3.65;;;;;;;6.35;100.00;101324.13;10625850;27;20039;-60
2021/10/21 21:39:39;;;;;;;15.73;3.10;;;;;;;6.28;100.00;101320.88;10625074;27;20051;-56
2021/10/21 21:44:42;;;;;;;14.35;3.08;;;;;;;6.47;100.00;101311.59;10625420;27;20399;-60
2021/10/21 21:49:45;;;;;;;11.32;2.83;;;;;;;6.53;100.00;101315.75;10624859;27;20513;-60
2021/10/21 21:54:47;;;;;;;16.33;3.63;;;;;;;6.54;100.00;101321.78;10625059;27;20051;-61
2021/10/21 21:59:49;;;;;;;17.05;3.17;;;;;;;6.43;100.00;101330.78;10624766;27;20058;-60
2021/10/21 22:04:52;;;;;;;20.10;2.40;;;;;;;6.44;100.00;101327.31;10625540;27;20043;-58
2021/10/21 22:09:54;;;;;;;11.43;2.38;;;;;;;6.47;100.00;101327.22;10624281;27;20054;-61
2021/10/21 22:14:56;;;;;;;13.60;2.28;;;;;;;6.47;100.00;101335.03;10625092;27;20039;-62
2021/10/21 22:19:59;;;;;;;15.45;2.92;;;;;;;6.49;100.00;101345.38;10624592;27;20050;-58
2021/10/21 22:25:02;;;;;;;10.07;2.00;;;;;;;6.44;100.00;101352.44;10624402;28;20486;-60
2021/10/21 22:30:06;;;;;;;11.45;2.30;;;;;;;6.40;100.00;101374.25;10606556;28;20043;-61
2021/10/21 22:35:08;;;;;;;6.63;1.80;;;;;;;6.42;100.00;101377.66;10624147;28;20494;-61
2021/10/21 22:40:12;;;;;;;11.20;1.70;;;;;;;6.48;100.00;101367.91;10623926;28;20093;-59
2021/10/21 22:45:30;;;;;;;10.98;2.10;;;;;;;6.64;100.00;101367.44;10608342;28;20049;-58
2021/10/21 22:50:33;;;;;;;8.55;2.33;;;;;;;6.51;100.00;101375.63;10624199;28;20112;-58
2021/10/21 22:55:35;;;;;;;8.07;2.30;;;;;;;6.46;100.00;101374.09;10623689;28;20047;-55
2021/10/21 23:00:39;;;;;;;8.93;2.65;;;;;;;6.56;100.00;101357.28;10623472;28;20051;-58
2021/10/21 23:05:42;;;;;;;9.13;2.30;;;;;;;6.55;100.00;101352.13;10630312;27;20054;-58
2021/10/21 23:10:45;;;;;;;9.23;2.05;;;;;;;6.68;100.00;101350.84;10631635;27;20051;-57
2021/10/21 23:15:47;;;;;;;10.73;2.47;;;;;;;6.66;100.00;101352.66;10631854;27;20050;-57
2021/10/21 23:20:50;;;;;;;9.85;2.35;;;;;;;6.50;100.00;101344.47;10612986;27;20074;-57
2021/10/21 23:25:52;;;;;;;8.30;2.13;;;;;;;6.46;100.00;101340.28;10631610;27;20043;-58
2021/10/21 23:30:55;;;;;;;12.75;2.42;;;;;;;6.25;100.00;101357.38;10630581;27;20406;-58
2021/10/21 23:35:58;;;;;;;7.90;2.28;;;;;;;6.46;100.00;101348.06;10630647;27;20039;-56
2021/10/21 23:41:00;;;;;;;11.88;2.67;;;;;;;6.50;100.00;101375.69;10630379;27;20047;-58
2021/10/21 23:46:02;;;;;;;13.75;2.38;;;;;;;6.43;100.00;101366.38;10630408;27;20049;-58
2021/10/21 23:51:05;;;;;;;13.18;2.58;;;;;;;6.49;100.00;101346.22;10629961;27;20047;-58